Huvudsida
METAR-TAF:

METAR-TAF

Flygplatser :

Madrid / Getafe

Madrid-Getafe, Spanien

latitud: 40-18N, longitud: 003-43W, höjd: 620 m

Aktuellt väderrapport

Denna rapport gjordes för 2 timmar och 31 minuter sedan, klockan 20:00 UTC
Vind 4 kt från nordost
Temperatur 12°C
Fuktighet 30%
Tryck 1026 hPa
Sikt 10 km eller mer
Inga moln under 1 500 m eller inga cumulonimbus

METAR: LEGT 202000Z 04004KT CAVOK 12/M05 Q1026

Tid: 23:31 (22:31 UTC)

Väderprognos

Denna rapport gjordes för 5 timmar och 31 minuter sedan, klockan 17:00 UTC
Prognos gäller från 20 kl. 18 UTC till 21 kl. 03 UTC
Vind 8 kt från ost/nordost
Sikt 10 km eller mer
Inga moln under 1 500 m eller inga cumulonimbus

TAF: LEGT 201700Z 2018/2103 06008KT CAVOK

Aktuella väderrapporter och prognoser från 4000 flygplatser (METAR- och TAF-rapporter).

De tillgängliga stationerna syns som gula och röda prickar på kartan.

För musen över prickarna för att se namnen på stationerna.

Klicka sedan för att få väderrapporter och prognoser.

För att ändra kartan: Klicka på de gröna knapparna med ett svart kors på för att zooma in; den gröna knappen med ett streck på för att zooma ut; eller på de gröna pilarna för angränsande kartor.


METAR-TAF: